Ashland, WI

3:41 AM CDT on August 24, 2016 (GMT -0500)
Moquah North | | Change Station

Elev 1175 ft 46.60 °N, 91.08 °W | Updated 38 seconds ago

Overcast
Overcast
65.7 °F
Feels Like 65.7 °F
N
0.0
Wind Variable Wind from South
Gusts 1.0 mph

Today
High -- | Low -- °F
--% Chance of Precip.
Yesterday
High -- | Low -- °F
Precip. -- in
Pressure 29.84 in
Visibility 10.0 miles
Clouds Mostly Cloudy 2300 ft
Mostly Cloudy 2800 ft
Overcast 9000 ft
Dew Point 63 °F
Humidity 92%
Rainfall 0.00 in
Snow Depth Not available.
6:14 AM 7:57 PM
Waning Gibbous, 59% visible
SPECI KASX 240831Z AUTO 16003KT 10SM BKN023 BKN028 OVC090 21/18 A2984 RMK AO2 T02060178
Pressure 29.84 in
Visibility 10.0 miles
Clouds Mostly Cloudy 2300 ft
Mostly Cloudy 2800 ft
Overcast 9000 ft
Dew Point 63 °F
Humidity 92%
Rainfall 0.00 in
Snow Depth Not available.
6:14 AM 7:57 PM
Waning Gibbous, 59% visible
SPECI KASX 240831Z AUTO 16003KT 10SM BKN023 BKN028 OVC090 21/18 A2984 RMK AO2 T02060178

10-Day Weather Forecast

Almanac

Astronomy

Aug. 24, 2016 Rise Set
Actual Time
Civil Twilight
Nautical Twilight
Astronomical Twilight
Moon
Length of Visible Light
Length of Day
Tomorrow will be .
, % of the Moon is Illuminated

Today's Extremes

State Highs State Lows

Community

WunderPhotos

Upload Photos

1,934,560 photos uploaded!

WunderBlog® & News

Nearby

Air Quality

  Air Quality AQ Index Pollutant
Not available.

Snow Depth

Station Depth Elevation

Earthquake Activity

City Distance Mag. Time & Date
Minimum magnitude displayed is 2.5.

Coastal Water Temperatures

Place Temperature

Stations

Nearby Weather Stations

Station Location Temp. Windchill Dew Point Humidity Wind Precip. Elev Updated Type
                   

Watches & Warnings

There are currently no watches in effect.